sensor_id;sensor_type;location;lat;lon;timestamp;P1;durP1;ratioP1;P2;durP2;ratioP2
31004;SDS011;17676;52.254;4.490;2023-05-07T00:01:33;52.55;;;47.08;;
31004;SDS011;17676;52.254;4.490;2023-05-07T00:03:58;53.10;;;47.60;;
31004;SDS011;17676;52.254;4.490;2023-05-07T00:06:24;53.22;;;47.85;;
31004;SDS011;17676;52.254;4.490;2023-05-07T00:08:51;50.92;;;45.65;;
31004;SDS011;17676;52.254;4.490;2023-05-07T00:11:17;55.28;;;49.17;;
31004;SDS011;17676;52.254;4.490;2023-05-07T00:13:42;51.95;;;46.58;;
31004;SDS011;17676;52.254;4.490;2023-05-07T00:16:08;53.70;;;48.20;;
31004;SDS011;17676;52.254;4.490;2023-05-07T00:18:33;51.88;;;46.42;;
31004;SDS011;17676;52.254;4.490;2023-05-07T00:21:03;54.92;;;49.00;;
31004;SDS011;17676;52.254;4.490;2023-05-07T00:23:29;53.00;;;47.50;;
31004;SDS011;17676;52.254;4.490;2023-05-07T00:25:55;52.03;;;46.40;;
31004;SDS011;17676;52.254;4.490;2023-05-07T00:28:21;52.47;;;46.78;;
31004;SDS011;17676;52.254;4.490;2023-05-07T00:30:47;55.47;;;49.42;;
31004;SDS011;17676;52.254;4.490;2023-05-07T00:33:12;52.28;;;46.95;;
31004;SDS011;17676;52.254;4.490;2023-05-07T00:35:38;51.05;;;45.78;;
31004;SDS011;17676;52.254;4.490;2023-05-07T00:38:04;51.47;;;46.05;;
31004;SDS011;17676;52.254;4.490;2023-05-07T00:40:29;49.70;;;44.63;;
31004;SDS011;17676;52.254;4.490;2023-05-07T00:42:55;51.45;;;46.35;;
31004;SDS011;17676;52.254;4.490;2023-05-07T00:45:24;53.30;;;44.72;;
31004;SDS011;17676;52.254;4.490;2023-05-07T00:47:53;50.65;;;45.30;;
31004;SDS011;17676;52.254;4.490;2023-05-07T00:50:20;48.90;;;44.05;;
31004;SDS011;17676;52.254;4.490;2023-05-07T00:52:45;48.65;;;43.75;;
31004;SDS011;17676;52.254;4.490;2023-05-07T00:55:11;48.53;;;43.67;;
31004;SDS011;17676;52.254;4.490;2023-05-07T00:57:39;48.88;;;43.65;;
31004;SDS011;17676;52.254;4.490;2023-05-07T01:00:06;48.10;;;42.90;;
31004;SDS011;17676;52.254;4.490;2023-05-07T01:02:40;46.90;;;42.13;;
31004;SDS011;17676;52.254;4.490;2023-05-07T01:05:07;47.95;;;43.03;;
31004;SDS011;17676;52.254;4.490;2023-05-07T01:07:36;45.97;;;41.47;;
31004;SDS011;17676;52.254;4.490;2023-05-07T01:10:05;45.72;;;40.75;;
31004;SDS011;17676;52.254;4.490;2023-05-07T01:12:32;46.33;;;41.72;;
31004;SDS011;17676;52.254;4.490;2023-05-07T01:14:59;45.97;;;41.08;;
31004;SDS011;17676;52.254;4.490;2023-05-07T01:17:25;45.50;;;40.78;;
31004;SDS011;17676;52.254;4.490;2023-05-07T01:19:50;45.47;;;40.55;;
31004;SDS011;17676;52.254;4.490;2023-05-07T01:22:22;50.15;;;41.75;;
31004;SDS011;17676;52.254;4.490;2023-05-07T01:24:58;44.00;;;39.40;;
31004;SDS011;17676;52.254;4.490;2023-05-07T01:27:25;46.00;;;40.45;;
31004;SDS011;17676;52.254;4.490;2023-05-07T01:29:51;46.53;;;41.70;;
31004;SDS011;17676;52.254;4.490;2023-05-07T01:32:17;46.08;;;41.38;;
31004;SDS011;17676;52.254;4.490;2023-05-07T01:34:46;44.72;;;40.10;;
31004;SDS011;17676;52.254;4.490;2023-05-07T01:37:14;48.25;;;43.05;;
31004;SDS011;17676;52.254;4.490;2023-05-07T01:39:40;48.60;;;43.40;;
31004;SDS011;17676;52.254;4.490;2023-05-07T01:42:06;48.70;;;43.70;;
31004;SDS011;17676;52.254;4.490;2023-05-07T01:44:32;52.97;;;47.33;;
31004;SDS011;17676;52.254;4.490;2023-05-07T01:46:58;50.55;;;44.05;;
31004;SDS011;17676;52.254;4.490;2023-05-07T01:49:30;51.45;;;46.05;;
31004;SDS011;17676;52.254;4.490;2023-05-07T01:51:56;53.38;;;46.13;;
31004;SDS011;17676;52.254;4.490;2023-05-07T01:54:25;52.15;;;46.28;;
31004;SDS011;17676;52.254;4.490;2023-05-07T01:56:57;50.22;;;44.75;;
31004;SDS011;17676;52.254;4.490;2023-05-07T01:59:22;51.15;;;45.20;;
31004;SDS011;17676;52.254;4.490;2023-05-07T02:01:48;54.65;;;47.15;;
31004;SDS011;17676;52.254;4.490;2023-05-07T02:04:13;55.67;;;47.38;;
31004;SDS011;17676;52.254;4.490;2023-05-07T02:06:39;52.35;;;46.30;;
31004;SDS011;17676;52.254;4.490;2023-05-07T02:09:05;54.35;;;46.00;;
31004;SDS011;17676;52.254;4.490;2023-05-07T02:11:30;54.38;;;46.30;;
31004;SDS011;17676;52.254;4.490;2023-05-07T02:13:56;61.75;;;45.53;;
31004;SDS011;17676;52.254;4.490;2023-05-07T02:16:21;53.85;;;46.45;;
31004;SDS011;17676;52.254;4.490;2023-05-07T02:18:48;56.28;;;46.95;;
31004;SDS011;17676;52.254;4.490;2023-05-07T02:21:13;53.03;;;45.17;;
31004;SDS011;17676;52.254;4.490;2023-05-07T02:23:38;53.30;;;46.10;;
31004;SDS011;17676;52.254;4.490;2023-05-07T02:26:04;53.13;;;46.33;;
31004;SDS011;17676;52.254;4.490;2023-05-07T02:28:30;56.50;;;47.20;;
31004;SDS011;17676;52.254;4.490;2023-05-07T02:30:55;58.08;;;46.83;;
31004;SDS011;17676;52.254;4.490;2023-05-07T02:33:23;55.92;;;47.35;;
31004;SDS011;17676;52.254;4.490;2023-05-07T02:35:52;55.97;;;46.08;;
31004;SDS011;17676;52.254;4.490;2023-05-07T02:38:17;54.45;;;45.00;;
31004;SDS011;17676;52.254;4.490;2023-05-07T02:40:43;54.33;;;44.60;;
31004;SDS011;17676;52.254;4.490;2023-05-07T02:43:08;54.65;;;44.35;;
31004;SDS011;17676;52.254;4.490;2023-05-07T02:45:34;52.17;;;45.33;;
31004;SDS011;17676;52.254;4.490;2023-05-07T02:47:59;52.78;;;44.78;;
31004;SDS011;17676;52.254;4.490;2023-05-07T02:50:25;54.65;;;45.45;;
31004;SDS011;17676;52.254;4.490;2023-05-07T02:52:51;49.05;;;43.25;;
31004;SDS011;17676;52.254;4.490;2023-05-07T02:55:17;49.85;;;43.17;;
31004;SDS011;17676;52.254;4.490;2023-05-07T02:57:42;48.55;;;42.60;;
31004;SDS011;17676;52.254;4.490;2023-05-07T03:00:11;45.67;;;39.90;;
31004;SDS011;17676;52.254;4.490;2023-05-07T03:02:41;46.33;;;41.33;;
31004;SDS011;17676;52.254;4.490;2023-05-07T03:05:07;46.17;;;40.65;;
31004;SDS011;17676;52.254;4.490;2023-05-07T03:07:34;44.90;;;40.08;;
31004;SDS011;17676;52.254;4.490;2023-05-07T03:10:00;45.40;;;40.58;;
31004;SDS011;17676;52.254;4.490;2023-05-07T03:12:25;45.47;;;40.65;;
31004;SDS011;17676;52.254;4.490;2023-05-07T03:14:51;41.90;;;37.50;;
31004;SDS011;17676;52.254;4.490;2023-05-07T03:17:16;47.15;;;39.85;;
31004;SDS011;17676;52.254;4.490;2023-05-07T03:19:42;43.33;;;38.67;;
31004;SDS011;17676;52.254;4.490;2023-05-07T03:22:07;44.83;;;39.95;;
31004;SDS011;17676;52.254;4.490;2023-05-07T03:24:33;42.22;;;37.97;;
31004;SDS011;17676;52.254;4.490;2023-05-07T03:26:59;43.78;;;39.17;;
31004;SDS011;17676;52.254;4.490;2023-05-07T03:29:26;43.40;;;38.88;;
31004;SDS011;17676;52.254;4.490;2023-05-07T03:31:51;43.97;;;39.35;;
31004;SDS011;17676;52.254;4.490;2023-05-07T03:34:17;43.72;;;37.97;;
31004;SDS011;17676;52.254;4.490;2023-05-07T03:36:47;39.90;;;35.80;;
31004;SDS011;17676;52.254;4.490;2023-05-07T03:39:15;38.65;;;34.95;;
31004;SDS011;17676;52.254;4.490;2023-05-07T03:41:41;41.80;;;37.45;;
31004;SDS011;17676;52.254;4.490;2023-05-07T03:44:06;40.78;;;36.58;;
31004;SDS011;17676;52.254;4.490;2023-05-07T03:46:32;39.85;;;36.05;;
31004;SDS011;17676;52.254;4.490;2023-05-07T03:48:59;39.63;;;35.55;;
31004;SDS011;17676;52.254;4.490;2023-05-07T03:51:25;39.83;;;35.75;;
31004;SDS011;17676;52.254;4.490;2023-05-07T03:53:51;36.05;;;32.40;;
31004;SDS011;17676;52.254;4.490;2023-05-07T03:56:19;38.20;;;34.38;;
31004;SDS011;17676;52.254;4.490;2023-05-07T03:58:46;36.97;;;33.28;;
31004;SDS011;17676;52.254;4.490;2023-05-07T04:01:12;38.95;;;35.15;;
31004;SDS011;17676;52.254;4.490;2023-05-07T04:03:38;37.83;;;34.13;;
31004;SDS011;17676;52.254;4.490;2023-05-07T04:06:04;39.33;;;35.50;;
31004;SDS011;17676;52.254;4.490;2023-05-07T04:08:30;39.33;;;35.20;;
31004;SDS011;17676;52.254;4.490;2023-05-07T04:10:56;39.00;;;35.17;;
31004;SDS011;17676;52.254;4.490;2023-05-07T04:13:22;39.08;;;35.33;;
31004;SDS011;17676;52.254;4.490;2023-05-07T04:15:48;41.33;;;35.78;;
31004;SDS011;17676;52.254;4.490;2023-05-07T04:18:14;39.65;;;35.58;;
31004;SDS011;17676;52.254;4.490;2023-05-07T04:20:40;39.33;;;35.53;;
31004;SDS011;17676;52.254;4.490;2023-05-07T04:23:06;39.25;;;35.35;;
31004;SDS011;17676;52.254;4.490;2023-05-07T04:25:32;36.53;;;32.85;;
31004;SDS011;17676;52.254;4.490;2023-05-07T04:27:58;35.25;;;31.58;;
31004;SDS011;17676;52.254;4.490;2023-05-07T04:30:23;35.63;;;32.20;;
31004;SDS011;17676;52.254;4.490;2023-05-07T04:32:49;34.08;;;30.83;;
31004;SDS011;17676;52.254;4.490;2023-05-07T04:35:15;35.67;;;31.98;;
31004;SDS011;17676;52.254;4.490;2023-05-07T04:37:40;33.10;;;29.60;;
31004;SDS011;17676;52.254;4.490;2023-05-07T04:40:06;31.50;;;28.52;;
31004;SDS011;17676;52.254;4.490;2023-05-07T04:42:32;32.80;;;29.77;;
31004;SDS011;17676;52.254;4.490;2023-05-07T04:44:58;29.52;;;26.77;;
31004;SDS011;17676;52.254;4.490;2023-05-07T04:47:23;30.67;;;27.70;;
31004;SDS011;17676;52.254;4.490;2023-05-07T04:49:49;31.75;;;27.15;;
31004;SDS011;17676;52.254;4.490;2023-05-07T04:52:15;29.88;;;27.00;;
31004;SDS011;17676;52.254;4.490;2023-05-07T04:54:41;31.23;;;28.10;;
31004;SDS011;17676;52.254;4.490;2023-05-07T04:57:07;29.30;;;26.50;;
31004;SDS011;17676;52.254;4.490;2023-05-07T04:59:33;30.00;;;27.05;;
31004;SDS011;17676;52.254;4.490;2023-05-07T05:01:58;29.00;;;26.35;;
31004;SDS011;17676;52.254;4.490;2023-05-07T05:04:24;28.25;;;25.58;;
31004;SDS011;17676;52.254;4.490;2023-05-07T05:06:50;27.77;;;25.05;;
31004;SDS011;17676;52.254;4.490;2023-05-07T05:09:15;28.10;;;25.45;;
31004;SDS011;17676;52.254;4.490;2023-05-07T05:11:41;28.63;;;25.90;;
31004;SDS011;17676;52.254;4.490;2023-05-07T05:14:07;28.58;;;25.98;;
31004;SDS011;17676;52.254;4.490;2023-05-07T05:16:32;27.70;;;25.15;;
31004;SDS011;17676;52.254;4.490;2023-05-07T05:18:58;27.02;;;24.42;;
31004;SDS011;17676;52.254;4.490;2023-05-07T05:21:24;26.60;;;24.10;;
31004;SDS011;17676;52.254;4.490;2023-05-07T05:23:49;26.33;;;23.67;;
31004;SDS011;17676;52.254;4.490;2023-05-07T05:26:15;25.75;;;23.20;;
31004;SDS011;17676;52.254;4.490;2023-05-07T05:28:41;26.17;;;23.67;;
31004;SDS011;17676;52.254;4.490;2023-05-07T05:31:06;26.15;;;23.70;;
31004;SDS011;17676;52.254;4.490;2023-05-07T05:33:32;24.25;;;21.90;;
31004;SDS011;17676;52.254;4.490;2023-05-07T05:35:58;21.27;;;19.17;;
31004;SDS011;17676;52.254;4.490;2023-05-07T05:38:23;22.73;;;20.52;;
31004;SDS011;17676;52.254;4.490;2023-05-07T05:40:49;22.40;;;20.50;;
31004;SDS011;17676;52.254;4.490;2023-05-07T05:43:14;21.45;;;19.65;;
31004;SDS011;17676;52.254;4.490;2023-05-07T05:45:40;19.95;;;18.15;;
31004;SDS011;17676;52.254;4.490;2023-05-07T05:48:06;20.77;;;19.02;;
31004;SDS011;17676;52.254;4.490;2023-05-07T05:50:31;21.23;;;19.23;;
31004;SDS011;17676;52.254;4.490;2023-05-07T05:52:57;20.70;;;18.73;;
31004;SDS011;17676;52.254;4.490;2023-05-07T05:55:23;20.45;;;18.42;;
31004;SDS011;17676;52.254;4.490;2023-05-07T05:57:49;21.45;;;19.48;;
31004;SDS011;17676;52.254;4.490;2023-05-07T06:00:16;20.60;;;18.60;;
31004;SDS011;17676;52.254;4.490;2023-05-07T06:02:42;20.85;;;19.05;;
31004;SDS011;17676;52.254;4.490;2023-05-07T06:05:08;19.75;;;18.08;;
31004;SDS011;17676;52.254;4.490;2023-05-07T06:07:34;20.52;;;18.60;;
31004;SDS011;17676;52.254;4.490;2023-05-07T06:10:00;20.05;;;18.27;;
31004;SDS011;17676;52.254;4.490;2023-05-07T06:12:28;20.48;;;18.38;;
31004;SDS011;17676;52.254;4.490;2023-05-07T06:14:54;20.40;;;18.67;;
31004;SDS011;17676;52.254;4.490;2023-05-07T06:17:20;19.60;;;17.75;;
31004;SDS011;17676;52.254;4.490;2023-05-07T06:19:45;20.95;;;19.20;;
31004;SDS011;17676;52.254;4.490;2023-05-07T06:22:11;21.10;;;19.13;;
31004;SDS011;17676;52.254;4.490;2023-05-07T06:24:36;23.08;;;20.02;;
31004;SDS011;17676;52.254;4.490;2023-05-07T06:27:02;23.60;;;21.02;;
31004;SDS011;17676;52.254;4.490;2023-05-07T06:29:28;23.17;;;21.05;;
31004;SDS011;17676;52.254;4.490;2023-05-07T06:31:56;23.23;;;21.08;;
31004;SDS011;17676;52.254;4.490;2023-05-07T06:34:22;23.38;;;21.30;;
31004;SDS011;17676;52.254;4.490;2023-05-07T06:36:47;24.27;;;21.98;;
31004;SDS011;17676;52.254;4.490;2023-05-07T06:39:13;23.05;;;20.95;;
31004;SDS011;17676;52.254;4.490;2023-05-07T06:41:39;22.75;;;20.83;;
31004;SDS011;17676;52.254;4.490;2023-05-07T06:44:05;23.55;;;21.27;;
31004;SDS011;17676;52.254;4.490;2023-05-07T06:46:30;23.35;;;21.15;;
31004;SDS011;17676;52.254;4.490;2023-05-07T06:48:56;22.20;;;20.20;;
31004;SDS011;17676;52.254;4.490;2023-05-07T06:51:22;21.95;;;19.85;;
31004;SDS011;17676;52.254;4.490;2023-05-07T06:53:47;19.00;;;17.45;;
31004;SDS011;17676;52.254;4.490;2023-05-07T06:56:13;15.52;;;14.15;;
31004;SDS011;17676;52.254;4.490;2023-05-07T06:58:38;13.52;;;12.10;;
31004;SDS011;17676;52.254;4.490;2023-05-07T07:01:04;13.90;;;12.48;;
31004;SDS011;17676;52.254;4.490;2023-05-07T07:03:30;11.82;;;10.68;;
31004;SDS011;17676;52.254;4.490;2023-05-07T07:05:55;11.52;;;10.48;;
31004;SDS011;17676;52.254;4.490;2023-05-07T07:08:21;12.02;;;10.73;;
31004;SDS011;17676;52.254;4.490;2023-05-07T07:10:47;12.00;;;10.80;;
31004;SDS011;17676;52.254;4.490;2023-05-07T07:13:13;11.82;;;10.68;;
31004;SDS011;17676;52.254;4.490;2023-05-07T07:15:39;12.10;;;11.02;;
31004;SDS011;17676;52.254;4.490;2023-05-07T07:18:05;12.00;;;11.00;;
31004;SDS011;17676;52.254;4.490;2023-05-07T07:20:31;11.80;;;10.80;;
31004;SDS011;17676;52.254;4.490;2023-05-07T07:22:57;12.00;;;11.02;;
31004;SDS011;17676;52.254;4.490;2023-05-07T07:25:22;10.75;;;9.82;;
31004;SDS011;17676;52.254;4.490;2023-05-07T07:27:48;12.07;;;11.00;;
31004;SDS011;17676;52.254;4.490;2023-05-07T07:30:14;11.40;;;10.38;;
31004;SDS011;17676;52.254;4.490;2023-05-07T07:32:40;12.18;;;11.05;;
31004;SDS011;17676;52.254;4.490;2023-05-07T07:35:06;10.70;;;9.80;;
31004;SDS011;17676;52.254;4.490;2023-05-07T07:37:31;11.18;;;10.20;;
31004;SDS011;17676;52.254;4.490;2023-05-07T07:39:59;12.95;;;11.75;;
31004;SDS011;17676;52.254;4.490;2023-05-07T07:42:25;12.43;;;11.43;;
31004;SDS011;17676;52.254;4.490;2023-05-07T07:44:50;12.27;;;11.23;;
31004;SDS011;17676;52.254;4.490;2023-05-07T07:47:16;10.95;;;10.05;;
31004;SDS011;17676;52.254;4.490;2023-05-07T07:49:45;11.48;;;10.38;;
31004;SDS011;17676;52.254;4.490;2023-05-07T07:52:11;10.98;;;10.00;;
31004;SDS011;17676;52.254;4.490;2023-05-07T07:54:37;10.60;;;9.65;;
31004;SDS011;17676;52.254;4.490;2023-05-07T07:57:03;9.82;;;9.02;;
31004;SDS011;17676;52.254;4.490;2023-05-07T07:59:29;10.70;;;9.82;;
31004;SDS011;17676;52.254;4.490;2023-05-07T08:01:54;9.65;;;8.95;;
31004;SDS011;17676;52.254;4.490;2023-05-07T08:04:20;10.35;;;9.45;;
31004;SDS011;17676;52.254;4.490;2023-05-07T08:06:46;9.77;;;8.95;;
31004;SDS011;17676;52.254;4.490;2023-05-07T08:09:12;10.10;;;9.10;;
31004;SDS011;17676;52.254;4.490;2023-05-07T08:11:38;9.63;;;8.85;;
31004;SDS011;17676;52.254;4.490;2023-05-07T08:14:04;9.10;;;8.45;;
31004;SDS011;17676;52.254;4.490;2023-05-07T08:16:30;8.65;;;7.95;;
31004;SDS011;17676;52.254;4.490;2023-05-07T08:18:55;9.48;;;8.65;;
31004;SDS011;17676;52.254;4.490;2023-05-07T08:21:21;8.93;;;8.00;;
31004;SDS011;17676;52.254;4.490;2023-05-07T08:23:48;8.18;;;7.47;;
31004;SDS011;17676;52.254;4.490;2023-05-07T08:26:14;8.07;;;7.47;;
31004;SDS011;17676;52.254;4.490;2023-05-07T08:28:39;10.35;;;9.25;;
31004;SDS011;17676;52.254;4.490;2023-05-07T08:31:05;9.80;;;8.88;;
31004;SDS011;17676;52.254;4.490;2023-05-07T08:33:30;10.40;;;9.48;;
31004;SDS011;17676;52.254;4.490;2023-05-07T08:35:56;9.45;;;8.75;;
31004;SDS011;17676;52.254;4.490;2023-05-07T08:38:22;10.35;;;9.45;;
31004;SDS011;17676;52.254;4.490;2023-05-07T08:40:48;10.60;;;9.50;;
31004;SDS011;17676;52.254;4.490;2023-05-07T08:43:14;10.30;;;9.30;;
31004;SDS011;17676;52.254;4.490;2023-05-07T08:45:40;10.48;;;9.55;;
31004;SDS011;17676;52.254;4.490;2023-05-07T08:48:08;11.40;;;10.38;;
31004;SDS011;17676;52.254;4.490;2023-05-07T08:50:38;10.88;;;10.07;;
31004;SDS011;17676;52.254;4.490;2023-05-07T08:53:04;9.95;;;9.05;;
31004;SDS011;17676;52.254;4.490;2023-05-07T08:55:30;10.13;;;9.13;;
31004;SDS011;17676;52.254;4.490;2023-05-07T08:57:55;10.90;;;9.82;;
31004;SDS011;17676;52.254;4.490;2023-05-07T09:00:21;10.05;;;9.05;;
31004;SDS011;17676;52.254;4.490;2023-05-07T09:02:47;9.63;;;8.68;;
31004;SDS011;17676;52.254;4.490;2023-05-07T09:05:13;11.15;;;8.35;;
31004;SDS011;17676;52.254;4.490;2023-05-07T09:07:39;10.52;;;9.52;;
31004;SDS011;17676;52.254;4.490;2023-05-07T09:10:04;8.88;;;8.02;;
31004;SDS011;17676;52.254;4.490;2023-05-07T09:12:31;8.15;;;7.25;;
31004;SDS011;17676;52.254;4.490;2023-05-07T09:14:58;7.85;;;6.97;;
31004;SDS011;17676;52.254;4.490;2023-05-07T09:17:24;9.43;;;7.28;;
31004;SDS011;17676;52.254;4.490;2023-05-07T09:19:49;7.63;;;5.78;;
31004;SDS011;17676;52.254;4.490;2023-05-07T09:22:15;11.50;;;6.13;;
31004;SDS011;17676;52.254;4.490;2023-05-07T09:24:43;9.18;;;6.63;;
31004;SDS011;17676;52.254;4.490;2023-05-07T09:27:12;6.25;;;5.30;;
31004;SDS011;17676;52.254;4.490;2023-05-07T09:29:38;8.60;;;5.32;;
31004;SDS011;17676;52.254;4.490;2023-05-07T09:32:07;6.55;;;5.05;;
31004;SDS011;17676;52.254;4.490;2023-05-07T09:34:34;5.82;;;4.07;;
31004;SDS011;17676;52.254;4.490;2023-05-07T09:37:02;8.70;;;5.47;;
31004;SDS011;17676;52.254;4.490;2023-05-07T09:39:39;6.75;;;4.47;;
31004;SDS011;17676;52.254;4.490;2023-05-07T09:42:08;11.10;;;4.90;;
31004;SDS011;17676;52.254;4.490;2023-05-07T09:44:34;9.80;;;6.03;;
31004;SDS011;17676;52.254;4.490;2023-05-07T09:47:00;7.45;;;6.63;;
31004;SDS011;17676;52.254;4.490;2023-05-07T09:49:28;9.43;;;6.97;;
31004;SDS011;17676;52.254;4.490;2023-05-07T09:51:55;8.90;;;6.97;;
31004;SDS011;17676;52.254;4.490;2023-05-07T09:54:21;8.27;;;6.72;;
31004;SDS011;17676;52.254;4.490;2023-05-07T09:56:51;8.48;;;6.93;;
31004;SDS011;17676;52.254;4.490;2023-05-07T09:59:17;9.30;;;7.50;;
31004;SDS011;17676;52.254;4.490;2023-05-07T10:01:45;9.13;;;7.82;;
31004;SDS011;17676;52.254;4.490;2023-05-07T10:04:11;8.75;;;6.78;;
31004;SDS011;17676;52.254;4.490;2023-05-07T10:06:38;8.18;;;6.80;;
31004;SDS011;17676;52.254;4.490;2023-05-07T10:09:05;7.72;;;6.95;;
31004;SDS011;17676;52.254;4.490;2023-05-07T10:11:32;10.45;;;9.25;;
31004;SDS011;17676;52.254;4.490;2023-05-07T10:14:01;10.73;;;9.43;;
31004;SDS011;17676;52.254;4.490;2023-05-07T10:16:36;12.05;;;9.55;;
31004;SDS011;17676;52.254;4.490;2023-05-07T10:19:05;10.43;;;9.10;;
31004;SDS011;17676;52.254;4.490;2023-05-07T10:21:44;9.32;;;8.52;;
31004;SDS011;17676;52.254;4.490;2023-05-07T10:24:29;9.13;;;8.20;;
31004;SDS011;17676;52.254;4.490;2023-05-07T10:27:01;9.07;;;8.18;;
31004;SDS011;17676;52.254;4.490;2023-05-07T10:29:41;8.75;;;7.75;;
31004;SDS011;17676;52.254;4.490;2023-05-07T10:32:42;9.95;;;7.35;;
31004;SDS011;17676;52.254;4.490;2023-05-07T10:35:16;7.18;;;6.47;;
31004;SDS011;17676;52.254;4.490;2023-05-07T10:37:45;7.28;;;5.72;;
31004;SDS011;17676;52.254;4.490;2023-05-07T10:40:12;5.80;;;4.00;;
31004;SDS011;17676;52.254;4.490;2023-05-07T10:42:39;6.57;;;4.38;;
31004;SDS011;17676;52.254;4.490;2023-05-07T10:45:22;6.90;;;4.10;;
31004;SDS011;17676;52.254;4.490;2023-05-07T10:50:36;7.47;;;3.15;;
31004;SDS011;17676;52.254;4.490;2023-05-07T10:55:47;6.15;;;2.83;;
31004;SDS011;17676;52.254;4.490;2023-05-07T11:00:46;7.18;;;4.10;;
31004;SDS011;17676;52.254;4.490;2023-05-07T11:03:12;6.70;;;3.90;;
31004;SDS011;17676;52.254;4.490;2023-05-07T11:05:40;5.80;;;3.65;;
31004;SDS011;17676;52.254;4.490;2023-05-07T11:08:09;6.78;;;3.85;;
31004;SDS011;17676;52.254;4.490;2023-05-07T11:10:53;7.75;;;3.63;;
31004;SDS011;17676;52.254;4.490;2023-05-07T11:16:18;5.63;;;4.60;;
31004;SDS011;17676;52.254;4.490;2023-05-07T11:18:49;4.07;;;3.67;;
31004;SDS011;17676;52.254;4.490;2023-05-07T11:24:01;6.18;;;3.83;;
31004;SDS011;17676;52.254;4.490;2023-05-07T11:26:29;5.32;;;3.33;;
31004;SDS011;17676;52.254;4.490;2023-05-07T11:28:56;6.90;;;3.63;;
31004;SDS011;17676;52.254;4.490;2023-05-07T11:31:24;7.78;;;3.42;;
31004;SDS011;17676;52.254;4.490;2023-05-07T11:33:51;5.18;;;3.33;;
31004;SDS011;17676;52.254;4.490;2023-05-07T11:36:18;9.05;;;3.90;;
31004;SDS011;17676;52.254;4.490;2023-05-07T11:38:45;8.38;;;3.75;;
31004;SDS011;17676;52.254;4.490;2023-05-07T11:41:11;12.80;;;4.35;;
31004;SDS011;17676;52.254;4.490;2023-05-07T11:43:37;8.50;;;4.25;;
31004;SDS011;17676;52.254;4.490;2023-05-07T11:46:08;11.73;;;5.10;;
31004;SDS011;17676;52.254;4.490;2023-05-07T11:48:35;7.57;;;3.95;;
31004;SDS011;17676;52.254;4.490;2023-05-07T11:51:01;5.50;;;3.55;;
31004;SDS011;17676;52.254;4.490;2023-05-07T11:53:34;6.30;;;4.20;;
31004;SDS011;17676;52.254;4.490;2023-05-07T11:56:08;6.22;;;4.00;;
31004;SDS011;17676;52.254;4.490;2023-05-07T11:58:35;11.65;;;3.63;;
31004;SDS011;17676;52.254;4.490;2023-05-07T12:01:04;4.40;;;3.83;;
31004;SDS011;17676;52.254;4.490;2023-05-07T12:03:32;9.35;;;5.55;;
31004;SDS011;17676;52.254;4.490;2023-05-07T12:05:59;7.28;;;4.82;;
31004;SDS011;17676;52.254;4.490;2023-05-07T12:08:25;6.72;;;4.93;;
31004;SDS011;17676;52.254;4.490;2023-05-07T12:10:51;11.32;;;7.40;;
31004;SDS011;17676;52.254;4.490;2023-05-07T12:13:21;14.05;;;12.02;;
31004;SDS011;17676;52.254;4.490;2023-05-07T12:15:51;16.08;;;14.38;;
31004;SDS011;17676;52.254;4.490;2023-05-07T12:18:20;17.73;;;15.68;;
31004;SDS011;17676;52.254;4.490;2023-05-07T12:20:47;18.55;;;16.55;;
31004;SDS011;17676;52.254;4.490;2023-05-07T12:23:14;20.27;;;17.33;;
31004;SDS011;17676;52.254;4.490;2023-05-07T12:25:40;35.47;;;20.63;;
31004;SDS011;17676;52.254;4.490;2023-05-07T12:28:13;37.45;;;21.73;;
31004;SDS011;17676;52.254;4.490;2023-05-07T12:30:40;43.78;;;23.88;;
31004;SDS011;17676;52.254;4.490;2023-05-07T12:33:08;48.00;;;23.67;;
31004;SDS011;17676;52.254;4.490;2023-05-07T12:35:39;58.88;;;27.88;;
31004;SDS011;17676;52.254;4.490;2023-05-07T12:38:12;42.90;;;26.85;;
31004;SDS011;17676;52.254;4.490;2023-05-07T12:40:44;50.38;;;27.45;;
31004;SDS011;17676;52.254;4.490;2023-05-07T12:43:19;46.00;;;28.05;;
31004;SDS011;17676;52.254;4.490;2023-05-07T12:46:11;46.75;;;27.42;;
31004;SDS011;17676;52.254;4.490;2023-05-07T12:48:43;45.85;;;29.33;;
31004;SDS011;17676;52.254;4.490;2023-05-07T12:51:11;52.17;;;29.10;;
31004;SDS011;17676;52.254;4.490;2023-05-07T12:53:41;35.72;;;27.85;;
31004;SDS011;17676;52.254;4.490;2023-05-07T12:56:08;39.08;;;29.15;;
31004;SDS011;17676;52.254;4.490;2023-05-07T12:58:34;39.90;;;28.75;;
31004;SDS011;17676;52.254;4.490;2023-05-07T13:01:03;41.38;;;29.50;;
31004;SDS011;17676;52.254;4.490;2023-05-07T13:03:31;44.60;;;29.25;;
31004;SDS011;17676;52.254;4.490;2023-05-07T13:05:59;39.25;;;29.85;;
31004;SDS011;17676;52.254;4.490;2023-05-07T13:11:08;28.13;;;22.20;;
31004;SDS011;17676;52.254;4.490;2023-05-07T13:13:36;25.52;;;19.30;;
31004;SDS011;17676;52.254;4.490;2023-05-07T13:16:02;20.02;;;16.92;;
31004;SDS011;17676;52.254;4.490;2023-05-07T13:18:29;16.98;;;15.20;;
31004;SDS011;17676;52.254;4.490;2023-05-07T13:21:05;16.85;;;14.40;;
31004;SDS011;17676;52.254;4.490;2023-05-07T13:23:30;14.43;;;11.18;;
31004;SDS011;17676;52.254;4.490;2023-05-07T13:25:56;14.65;;;11.32;;
31004;SDS011;17676;52.254;4.490;2023-05-07T13:28:22;13.23;;;10.88;;
31004;SDS011;17676;52.254;4.490;2023-05-07T13:30:49;12.05;;;9.43;;
31004;SDS011;17676;52.254;4.490;2023-05-07T13:33:17;11.82;;;10.65;;
31004;SDS011;17676;52.254;4.490;2023-05-07T13:35:43;12.43;;;11.10;;
31004;SDS011;17676;52.254;4.490;2023-05-07T13:38:09;13.98;;;12.50;;
31004;SDS011;17676;52.254;4.490;2023-05-07T13:40:35;14.35;;;12.90;;
31004;SDS011;17676;52.254;4.490;2023-05-07T13:43:01;23.98;;;15.82;;
31004;SDS011;17676;52.254;4.490;2023-05-07T13:45:29;23.95;;;18.25;;
31004;SDS011;17676;52.254;4.490;2023-05-07T13:47:55;22.15;;;19.05;;
31004;SDS011;17676;52.254;4.490;2023-05-07T13:50:24;27.13;;;23.13;;
31004;SDS011;17676;52.254;4.490;2023-05-07T13:52:55;32.25;;;27.20;;
31004;SDS011;17676;52.254;4.490;2023-05-07T13:55:21;32.60;;;28.77;;
31004;SDS011;17676;52.254;4.490;2023-05-07T13:57:48;34.92;;;31.15;;
31004;SDS011;17676;52.254;4.490;2023-05-07T14:00:21;35.08;;;31.35;;
31004;SDS011;17676;52.254;4.490;2023-05-07T14:02:47;36.70;;;32.92;;
31004;SDS011;17676;52.254;4.490;2023-05-07T14:05:13;38.25;;;34.35;;
31004;SDS011;17676;52.254;4.490;2023-05-07T14:07:38;38.08;;;34.15;;
31004;SDS011;17676;52.254;4.490;2023-05-07T14:10:04;38.88;;;34.63;;
31004;SDS011;17676;52.254;4.490;2023-05-07T14:12:31;38.63;;;34.53;;
31004;SDS011;17676;52.254;4.490;2023-05-07T14:14:57;37.30;;;33.30;;
31004;SDS011;17676;52.254;4.490;2023-05-07T14:17:23;40.13;;;35.90;;
31004;SDS011;17676;52.254;4.490;2023-05-07T14:19:51;43.45;;;36.22;;
31004;SDS011;17676;52.254;4.490;2023-05-07T14:22:19;39.22;;;35.03;;
31004;SDS011;17676;52.254;4.490;2023-05-07T14:24:45;38.10;;;34.28;;
31004;SDS011;17676;52.254;4.490;2023-05-07T14:27:11;35.17;;;31.98;;
31004;SDS011;17676;52.254;4.490;2023-05-07T14:29:43;39.63;;;33.38;;
31004;SDS011;17676;52.254;4.490;2023-05-07T14:32:10;37.22;;;33.40;;
31004;SDS011;17676;52.254;4.490;2023-05-07T14:34:36;35.20;;;31.58;;
31004;SDS011;17676;52.254;4.490;2023-05-07T14:37:02;36.28;;;32.25;;
31004;SDS011;17676;52.254;4.490;2023-05-07T14:39:27;39.88;;;32.38;;
31004;SDS011;17676;52.254;4.490;2023-05-07T14:41:54;33.97;;;30.48;;
31004;SDS011;17676;52.254;4.490;2023-05-07T14:44:21;34.58;;;30.85;;